Time;durP1;ratioP1;P1;durP2;ratioP2;P2;SDS_P1;SDS_P2;PMS_P1;PMS_P2;Temp;Humidity;BMP_temperature;BMP_pressure;BME280_temperature;BME280_humidity;BME280_pressure;Samples;Min_cycle;Max_cycle;Signal;HPM_P1;HPM_P2
2023/11/17 00:00:11;;;;;;;57.40;25.90;;;7.20;99.90;;;;;;5045595;28;20726;-52
2023/11/17 00:02:41;;;;;;;50.20;24.23;;;7.20;99.90;;;;;;5043704;28;20209;-50
2023/11/17 00:05:10;;;;;;;50.13;24.97;;;7.20;99.90;;;;;;5047746;28;20231;-51
2023/11/17 00:07:38;;;;;;;53.17;26.07;;;7.10;99.90;;;;;;5048007;28;20706;-54
2023/11/17 00:10:08;;;;;;;54.83;25.30;;;7.10;99.90;;;;;;5048128;28;20294;-55
2023/11/17 00:12:38;;;;;;;57.07;24.90;;;7.10;99.90;;;;;;5041156;28;20217;-50
2023/11/17 00:15:07;;;;;;;56.60;25.20;;;7.10;99.90;;;;;;5045356;28;20232;-50
2023/11/17 00:17:36;;;;;;;52.47;25.53;;;7.10;99.90;;;;;;5047522;28;20675;-54
2023/11/17 00:20:05;;;;;;;51.67;26.03;;;7.00;99.90;;;;;;5048886;28;20631;-51
2023/11/17 00:22:34;;;;;;;52.23;25.60;;;7.10;99.90;;;;;;5044100;28;20270;-51
2023/11/17 00:25:02;;;;;;;53.57;24.73;;;7.00;99.90;;;;;;5044263;28;20229;-52
2023/11/17 00:27:31;;;;;;;56.57;25.80;;;7.00;99.90;;;;;;5048199;28;21197;-52
2023/11/17 00:30:00;;;;;;;55.37;25.30;;;7.00;99.90;;;;;;5044314;28;20220;-53
2023/11/17 00:32:28;;;;;;;50.77;25.50;;;7.00;99.90;;;;;;5043130;28;20317;-51
2023/11/17 00:34:57;;;;;;;60.33;26.23;;;7.00;99.90;;;;;;5039816;28;20197;-53
2023/11/17 00:37:26;;;;;;;55.20;26.33;;;7.00;99.90;;;;;;5036188;28;20198;-51
2023/11/17 00:39:55;;;;;;;64.47;25.47;;;7.00;99.90;;;;;;5040865;28;20239;-54
2023/11/17 00:42:23;;;;;;;60.90;26.23;;;7.00;99.90;;;;;;5041119;28;20235;-53
2023/11/17 00:44:52;;;;;;;54.23;26.30;;;7.00;99.90;;;;;;5047678;28;20229;-53
2023/11/17 00:47:22;;;;;;;60.43;26.47;;;7.00;99.90;;;;;;5049401;28;20240;-54
2023/11/17 00:49:51;;;;;;;60.77;25.33;;;7.00;99.90;;;;;;5045210;28;20626;-53
2023/11/17 00:52:19;;;;;;;53.43;24.20;;;7.00;99.90;;;;;;5044329;28;20204;-54
2023/11/17 00:54:49;;;;;;;54.97;25.97;;;7.00;99.90;;;;;;5048017;28;20641;-52
2023/11/17 00:57:18;;;;;;;60.33;26.67;;;7.00;99.90;;;;;;5040459;28;20209;-52
2023/11/17 00:59:47;;;;;;;62.77;26.83;;;7.00;99.90;;;;;;5046617;28;20220;-54
2023/11/17 01:02:17;;;;;;;65.33;28.33;;;7.10;99.90;;;;;;5043810;28;20220;-53
2023/11/17 01:04:46;;;;;;;73.40;28.67;;;7.10;99.90;;;;;;5047873;28;20188;-54
2023/11/17 01:07:15;;;;;;;63.13;28.73;;;7.10;99.90;;;;;;5043357;28;20223;-52
2023/11/17 01:09:46;;;;;;;63.93;28.07;;;7.10;99.90;;;;;;5042471;28;20221;-54
2023/11/17 01:12:14;;;;;;;68.37;28.00;;;7.10;99.90;;;;;;5045624;28;20228;-53
2023/11/17 01:14:43;;;;;;;71.37;28.90;;;7.20;99.90;;;;;;5044106;28;20231;-54
2023/11/17 01:17:12;;;;;;;69.60;28.93;;;7.20;99.90;;;;;;5043122;28;20237;-54
2023/11/17 01:19:45;;;;;;;68.73;29.93;;;7.20;99.90;;;;;;5048828;28;20234;-52
2023/11/17 01:22:15;;;;;;;67.57;28.83;;;7.30;99.90;;;;;;5047359;28;20641;-53
2023/11/17 01:24:43;;;;;;;68.67;29.70;;;7.30;99.90;;;;;;5046927;28;20240;-54
2023/11/17 01:27:11;;;;;;;71.07;29.43;;;7.30;99.90;;;;;;5038148;28;20235;-54
2023/11/17 01:29:39;;;;;;;66.93;28.27;;;7.30;99.90;;;;;;5049750;28;20216;-53
2023/11/17 01:32:08;;;;;;;66.80;28.97;;;7.30;99.90;;;;;;5040131;28;20288;-54
2023/11/17 01:34:37;;;;;;;61.37;27.47;;;7.30;99.90;;;;;;5041349;28;20653;-51
2023/11/17 01:37:05;;;;;;;71.47;27.23;;;7.30;99.90;;;;;;5039646;28;20201;-49
2023/11/17 01:39:35;;;;;;;64.97;28.73;;;7.30;99.90;;;;;;5040089;28;20622;-53
2023/11/17 01:42:04;;;;;;;72.07;28.63;;;7.30;99.90;;;;;;5040199;28;20648;-49
2023/11/17 01:44:32;;;;;;;76.07;30.33;;;7.30;99.90;;;;;;5038791;28;20252;-53
2023/11/17 01:47:01;;;;;;;66.67;29.57;;;7.30;99.90;;;;;;5037160;28;20753;-52
2023/11/17 01:49:30;;;;;;;72.07;29.40;;;7.30;99.90;;;;;;5039156;28;20229;-53
2023/11/17 01:51:59;;;;;;;72.13;29.90;;;7.30;99.90;;;;;;5051892;28;20248;-52
2023/11/17 01:54:27;;;;;;;72.77;31.17;;;7.30;99.90;;;;;;5048992;28;20213;-53
2023/11/17 01:56:57;;;;;;;75.40;30.43;;;7.30;99.90;;;;;;5050218;28;20220;-53
2023/11/17 01:59:26;;;;;;;75.93;31.40;;;7.40;99.90;;;;;;5053902;28;20247;-54
2023/11/17 02:01:54;;;;;;;75.00;30.67;;;7.30;99.90;;;;;;5050435;28;20193;-54
2023/11/17 02:04:23;;;;;;;75.03;32.43;;;7.30;99.90;;;;;;5052175;28;20215;-52
2023/11/17 02:07:01;;;;;;;69.53;29.70;;;7.30;99.90;;;;;;5045591;28;20213;-53
2023/11/17 02:09:37;;;;;;;72.57;31.73;;;7.30;99.90;;;;;;5041648;28;20285;-55
2023/11/17 02:12:15;;;;;;;78.63;31.53;;;7.30;99.90;;;;;;5045522;28;20703;-50
2023/11/17 02:14:48;;;;;;;78.10;32.57;;;7.30;99.90;;;;;;5053650;28;20212;-53
2023/11/17 02:17:17;;;;;;;73.37;30.40;;;7.30;99.90;;;;;;5047287;28;20598;-53
2023/11/17 02:19:47;;;;;;;76.47;31.90;;;7.30;99.90;;;;;;5060407;28;20316;-53
2023/11/17 02:22:18;;;;;;;73.33;30.23;;;7.30;99.90;;;;;;5051318;28;20239;-51
2023/11/17 02:25:01;;;;;;;74.23;31.53;;;7.30;99.90;;;;;;5045579;28;20307;-51
2023/11/17 02:27:45;;;;;;;81.20;30.97;;;7.30;99.90;;;;;;5045205;28;20248;-53
2023/11/17 02:30:19;;;;;;;69.93;29.33;;;7.30;99.90;;;;;;5048778;28;20224;-53
2023/11/17 02:32:50;;;;;;;82.13;30.00;;;7.30;99.90;;;;;;5048396;28;20215;-54
2023/11/17 02:35:18;;;;;;;75.83;31.67;;;7.30;99.90;;;;;;5041835;28;20785;-53
2023/11/17 02:37:50;;;;;;;78.07;30.60;;;7.30;99.90;;;;;;5050463;28;20200;-51
2023/11/17 02:40:19;;;;;;;71.87;30.13;;;7.30;99.90;;;;;;5047025;28;20661;-52
2023/11/17 02:42:49;;;;;;;72.47;29.03;;;7.40;99.90;;;;;;5046697;28;20237;-51
2023/11/17 02:45:20;;;;;;;75.90;30.33;;;7.30;99.90;;;;;;5054435;28;20216;-53
2023/11/17 02:47:49;;;;;;;71.07;29.63;;;7.30;99.90;;;;;;5052530;28;20216;-53
2023/11/17 02:50:31;;;;;;;71.73;29.43;;;7.30;99.90;;;;;;5050003;28;20285;-54
2023/11/17 02:53:17;;;;;;;71.00;29.80;;;7.30;99.90;;;;;;5046414;28;20228;-54
2023/11/17 02:55:46;;;;;;;81.80;30.23;;;7.30;99.90;;;;;;5050019;28;20283;-49
2023/11/17 02:58:15;;;;;;;79.43;31.37;;;7.30;99.90;;;;;;5047332;28;20190;-53
2023/11/17 03:00:47;;;;;;;75.83;32.43;;;7.30;99.90;;;;;;5048371;28;20668;-53
2023/11/17 03:03:15;;;;;;;84.73;32.20;;;7.30;99.90;;;;;;5043235;28;20213;-53
2023/11/17 03:05:43;;;;;;;79.23;32.60;;;7.30;99.90;;;;;;5054118;28;20304;-54
2023/11/17 03:08:13;;;;;;;76.60;32.90;;;7.30;99.90;;;;;;5044398;28;20604;-52
2023/11/17 03:10:41;;;;;;;79.30;32.60;;;7.30;99.90;;;;;;5043906;28;20212;-53
2023/11/17 03:13:15;;;;;;;76.43;31.83;;;7.30;99.90;;;;;;5061204;28;20201;-53
2023/11/17 03:15:46;;;;;;;74.43;31.57;;;7.30;99.90;;;;;;5051757;28;20220;-53
2023/11/17 03:18:15;;;;;;;77.33;30.67;;;7.30;99.90;;;;;;5049536;28;20611;-53
2023/11/17 03:20:44;;;;;;;77.67;31.60;;;7.40;99.90;;;;;;5051099;28;20231;-53
2023/11/17 03:23:12;;;;;;;69.77;30.43;;;7.40;99.90;;;;;;5045805;28;20233;-53
2023/11/17 03:25:43;;;;;;;72.53;28.63;;;7.40;99.90;;;;;;5054912;28;20189;-52
2023/11/17 03:28:13;;;;;;;65.00;26.60;;;7.40;99.90;;;;;;5052628;28;20212;-53
2023/11/17 03:30:42;;;;;;;55.50;24.60;;;7.50;99.90;;;;;;5045118;28;20232;-52
2023/11/17 03:33:12;;;;;;;51.83;23.50;;;7.50;99.90;;;;;;5046107;28;20234;-53
2023/11/17 03:35:42;;;;;;;49.17;22.40;;;7.50;99.90;;;;;;5045264;28;20592;-52
2023/11/17 03:38:13;;;;;;;46.60;21.40;;;7.60;99.90;;;;;;5049383;28;20587;-51
2023/11/17 03:40:45;;;;;;;53.53;22.23;;;7.60;99.90;;;;;;5056430;28;20243;-53
2023/11/17 03:43:14;;;;;;;51.00;22.40;;;7.60;99.90;;;;;;5053054;28;20646;-51
2023/11/17 03:45:48;;;;;;;47.67;21.50;;;7.60;99.90;;;;;;5048895;28;20572;-54
2023/11/17 03:48:18;;;;;;;45.67;20.87;;;7.70;99.90;;;;;;5040586;28;20726;-51
2023/11/17 03:50:48;;;;;;;51.30;20.20;;;7.70;99.90;;;;;;5050442;28;20255;-53
2023/11/17 03:53:17;;;;;;;45.07;19.87;;;7.70;99.90;;;;;;5042122;28;20733;-52
2023/11/17 03:55:46;;;;;;;43.40;18.30;;;7.70;99.90;;;;;;5051378;28;20749;-52
2023/11/17 03:58:16;;;;;;;37.13;17.27;;;7.70;99.90;;;;;;5050310;28;20199;-50
2023/11/17 04:00:48;;;;;;;36.33;16.77;;;7.70;99.90;;;;;;5045972;28;20217;-52
2023/11/17 04:03:19;;;;;;;36.80;16.83;;;7.70;99.90;;;;;;5050080;28;20237;-53
2023/11/17 04:05:48;;;;;;;32.83;16.70;;;7.70;99.90;;;;;;5043696;28;20222;-53
2023/11/17 04:08:17;;;;;;;36.40;16.67;;;7.70;99.90;;;;;;5053530;28;20256;-54
2023/11/17 04:10:46;;;;;;;32.77;16.37;;;7.70;99.90;;;;;;5047128;28;20189;-53
2023/11/17 04:13:14;;;;;;;30.13;16.73;;;7.70;99.90;;;;;;5046353;28;20208;-51
2023/11/17 04:15:43;;;;;;;32.40;17.63;;;7.60;99.90;;;;;;5050482;28;20212;-53
2023/11/17 04:18:11;;;;;;;34.27;18.23;;;7.60;99.90;;;;;;5040812;28;20295;-54
2023/11/17 04:20:41;;;;;;;33.90;18.80;;;7.60;99.90;;;;;;5052525;28;20613;-54
2023/11/17 04:23:10;;;;;;;37.40;19.63;;;7.60;99.90;;;;;;5041695;28;20319;-52
2023/11/17 04:25:39;;;;;;;37.17;19.93;;;7.60;99.90;;;;;;5052898;28;20209;-54
2023/11/17 04:28:07;;;;;;;36.40;20.33;;;7.60;99.90;;;;;;5046504;28;20224;-55
2023/11/17 04:30:35;;;;;;;41.97;21.87;;;7.60;99.90;;;;;;5045867;28;20303;-54
2023/11/17 04:33:03;;;;;;;41.03;21.53;;;7.60;99.90;;;;;;5044703;28;20232;-53
2023/11/17 04:35:32;;;;;;;40.00;22.03;;;7.60;99.90;;;;;;5047782;28;20224;-53
2023/11/17 04:38:01;;;;;;;45.10;22.60;;;7.60;99.90;;;;;;5047949;28;20192;-53
2023/11/17 04:40:31;;;;;;;42.10;22.80;;;7.60;99.90;;;;;;5040823;28;20199;-54
2023/11/17 04:43:00;;;;;;;49.67;25.53;;;7.60;99.90;;;;;;5040632;28;20576;-54
2023/11/17 04:45:35;;;;;;;60.27;28.17;;;7.60;99.90;;;;;;5043746;28;20694;-53
2023/11/17 04:48:05;;;;;;;59.93;29.03;;;7.60;99.90;;;;;;5042199;28;20217;-52
2023/11/17 04:50:32;;;;;;;65.03;30.60;;;7.60;99.90;;;;;;5045695;28;20228;-54
2023/11/17 04:53:02;;;;;;;70.00;32.93;;;7.60;99.90;;;;;;5043650;28;20224;-52
2023/11/17 04:55:30;;;;;;;76.57;34.40;;;7.60;99.90;;;;;;5048970;28;20647;-52
2023/11/17 04:57:59;;;;;;;82.27;35.77;;;7.60;99.90;;;;;;5051219;28;20301;-52
2023/11/17 05:00:31;;;;;;;75.77;34.33;;;7.60;99.90;;;;;;5042705;28;20223;-53
2023/11/17 05:03:00;;;;;;;78.80;34.60;;;7.60;99.90;;;;;;5047087;28;20758;-53
2023/11/17 05:05:29;;;;;;;72.93;33.53;;;7.60;99.90;;;;;;5047239;28;20304;-53
2023/11/17 05:07:59;;;;;;;74.50;33.27;;;7.50;99.90;;;;;;5048409;28;20218;-54
2023/11/17 05:10:29;;;;;;;71.03;30.63;;;7.50;99.90;;;;;;5046354;28;20219;-54
2023/11/17 05:12:57;;;;;;;71.47;30.17;;;7.40;99.90;;;;;;5043641;28;20590;-51
2023/11/17 05:15:25;;;;;;;79.50;32.70;;;7.40;99.90;;;;;;5047621;28;20217;-53
2023/11/17 05:17:54;;;;;;;71.90;31.10;;;7.40;99.90;;;;;;5051339;28;20223;-53
2023/11/17 05:20:24;;;;;;;75.43;31.83;;;7.30;99.90;;;;;;5051662;28;20271;-54
2023/11/17 05:22:52;;;;;;;89.57;36.77;;;7.30;99.90;;;;;;5051229;28;20230;-55
2023/11/17 05:25:24;;;;;;;94.80;37.50;;;7.40;99.90;;;;;;5051702;28;20207;-52
2023/11/17 05:31:18;;;;;;;100.40;39.10;;;7.40;99.90;;;;;;5048852;28;20224;-54
2023/11/17 05:33:47;;;;;;;98.03;37.27;;;7.30;99.90;;;;;;5048519;28;20209;-53
2023/11/17 05:36:16;;;;;;;98.10;36.57;;;7.30;99.90;;;;;;5051324;28;20225;-54
2023/11/17 05:38:44;;;;;;;91.33;34.73;;;7.30;99.90;;;;;;5049666;28;20292;-53
2023/11/17 05:41:13;;;;;;;87.07;33.93;;;7.20;99.90;;;;;;5043512;28;20231;-52
2023/11/17 05:43:45;;;;;;;80.97;31.70;;;7.20;99.90;;;;;;5052566;28;20199;-55
2023/11/17 05:46:15;;;;;;;76.47;30.60;;;7.10;99.90;;;;;;5038145;28;20197;-52
2023/11/17 05:48:44;;;;;;;76.23;29.77;;;7.10;99.90;;;;;;5053154;28;20223;-52
2023/11/17 05:51:13;;;;;;;70.20;28.63;;;7.10;99.90;;;;;;5051417;28;20220;-54
2023/11/17 05:53:41;;;;;;;68.60;28.60;;;7.00;99.90;;;;;;5050270;28;20234;-53
2023/11/17 05:56:11;;;;;;;61.67;25.67;;;6.90;99.90;;;;;;5050461;28;20235;-54
2023/11/17 05:58:39;;;;;;;67.23;25.47;;;6.90;99.90;;;;;;5049848;28;20200;-53
2023/11/17 06:01:08;;;;;;;60.73;23.67;;;6.80;99.90;;;;;;5042712;28;20307;-50
2023/11/17 06:03:37;;;;;;;53.00;21.93;;;6.80;99.90;;;;;;5046275;28;20232;-51
2023/11/17 06:06:06;;;;;;;49.97;21.07;;;6.70;99.90;;;;;;5046318;28;20228;-54
2023/11/17 06:08:35;;;;;;;55.23;21.87;;;6.60;99.90;;;;;;5050462;28;20229;-49
2023/11/17 06:11:05;;;;;;;52.13;21.83;;;6.60;99.90;;;;;;5042905;28;20230;-53
2023/11/17 06:13:38;;;;;;;60.03;22.60;;;6.50;99.90;;;;;;5045991;28;20704;-53
2023/11/17 06:16:07;;;;;;;50.73;21.40;;;6.50;99.90;;;;;;5047046;28;20245;-52
2023/11/17 06:18:37;;;;;;;52.83;21.80;;;6.50;99.90;;;;;;5041777;28;20217;-52
2023/11/17 06:21:06;;;;;;;55.57;21.47;;;6.50;99.90;;;;;;5047428;28;20221;-54
2023/11/17 06:23:34;;;;;;;54.77;22.70;;;6.50;99.90;;;;;;5050882;28;20699;-53
2023/11/17 06:26:04;;;;;;;59.57;22.17;;;6.40;99.90;;;;;;5043251;28;20596;-53
2023/11/17 06:28:32;;;;;;;59.50;22.40;;;6.50;99.90;;;;;;5048445;28;20209;-51
2023/11/17 06:31:01;;;;;;;57.83;22.93;;;6.50;99.90;;;;;;5040926;28;20307;-52
2023/11/17 06:33:29;;;;;;;65.30;25.07;;;6.50;99.90;;;;;;5045762;28;20256;-52
2023/11/17 06:36:03;;;;;;;63.97;25.63;;;6.40;99.90;;;;;;5046740;28;20220;-54
2023/11/17 06:38:33;;;;;;;64.50;24.00;;;6.40;99.90;;;;;;5048438;28;20215;-54
2023/11/17 06:41:03;;;;;;;57.27;22.07;;;6.30;99.90;;;;;;5046698;28;20575;-53
2023/11/17 06:43:31;;;;;;;63.33;23.70;;;6.20;99.90;;;;;;5041608;28;20196;-51
2023/11/17 06:45:59;;;;;;;54.30;21.57;;;6.10;99.90;;;;;;5045358;28;20221;-52
2023/11/17 06:48:28;;;;;;;59.83;21.27;;;6.10;99.90;;;;;;5047783;28;20251;-51
2023/11/17 06:50:57;;;;;;;53.77;21.73;;;6.10;99.90;;;;;;5039408;28;20217;-53
2023/11/17 06:53:29;;;;;;;58.20;22.27;;;6.00;99.90;;;;;;5042079;28;20292;-52
2023/11/17 06:55:57;;;;;;;57.20;21.73;;;6.00;99.90;;;;;;5043446;28;20199;-52
2023/11/17 06:58:26;;;;;;;58.93;22.37;;;6.00;99.90;;;;;;5049207;28;20216;-52
2023/11/17 07:00:54;;;;;;;63.00;22.70;;;5.90;99.90;;;;;;5047135;28;20213;-54
2023/11/17 07:03:23;;;;;;;60.37;22.90;;;5.90;99.90;;;;;;5041594;28;20208;-54
2023/11/17 07:05:51;;;;;;;65.37;24.47;;;5.80;99.90;;;;;;5042691;28;20232;-51
2023/11/17 07:08:21;;;;;;;66.00;24.27;;;5.80;99.90;;;;;;5051019;28;20800;-50
2023/11/17 07:10:51;;;;;;;66.37;24.90;;;5.80;99.90;;;;;;5041530;28;20216;-53
2023/11/17 07:13:20;;;;;;;69.37;25.63;;;5.90;99.90;;;;;;5041598;28;20198;-51
2023/11/17 07:15:48;;;;;;;70.77;26.10;;;5.90;99.90;;;;;;5044170;28;20221;-52
2023/11/17 07:18:17;;;;;;;69.57;25.67;;;5.90;99.90;;;;;;5048269;28;20217;-52
2023/11/17 07:20:45;;;;;;;65.30;23.90;;;5.90;99.90;;;;;;5037000;28;20216;-54
2023/11/17 07:23:13;;;;;;;63.13;23.90;;;6.00;99.90;;;;;;5044073;28;20607;-51
2023/11/17 07:25:45;;;;;;;68.03;24.87;;;5.90;99.90;;;;;;5043720;28;20194;-52
2023/11/17 07:28:15;;;;;;;68.63;24.90;;;6.00;99.90;;;;;;5034138;28;20228;-50
2023/11/17 07:30:44;;;;;;;77.90;25.93;;;6.10;99.90;;;;;;5045084;28;20220;-52
2023/11/17 07:33:16;;;;;;;72.13;26.10;;;6.20;99.90;;;;;;5046117;28;20242;-52
2023/11/17 07:35:45;;;;;;;67.17;24.80;;;6.30;99.90;;;;;;5042062;28;20213;-51
2023/11/17 07:38:13;;;;;;;71.30;25.83;;;6.40;99.90;;;;;;5041308;28;20682;-54
2023/11/17 07:40:42;;;;;;;76.53;26.90;;;6.50;99.90;;;;;;5044598;28;20201;-54
2023/11/17 07:43:11;;;;;;;77.13;27.00;;;6.50;99.90;;;;;;5048580;28;20668;-53
2023/11/17 07:45:40;;;;;;;72.90;26.40;;;6.60;99.90;;;;;;5038673;28;20209;-53
2023/11/17 07:48:09;;;;;;;72.27;25.57;;;6.60;99.90;;;;;;5047042;28;20227;-52
2023/11/17 07:50:40;;;;;;;73.73;25.70;;;6.70;99.90;;;;;;5050804;28;20731;-53
2023/11/17 07:53:09;;;;;;;79.53;27.00;;;6.70;99.90;;;;;;5044617;28;20707;-54
2023/11/17 07:55:37;;;;;;;84.40;28.13;;;6.70;99.90;;;;;;5043848;28;20192;-55
2023/11/17 07:58:05;;;;;;;76.77;27.30;;;6.80;99.90;;;;;;5049835;28;20252;-54
2023/11/17 08:00:34;;;;;;;85.63;26.40;;;6.80;99.90;;;;;;5047500;28;20228;-52
2023/11/17 08:03:04;;;;;;;74.93;25.87;;;6.80;99.90;;;;;;5032818;28;20209;-54
2023/11/17 08:05:33;;;;;;;69.90;25.27;;;6.80;99.90;;;;;;5018921;28;20222;-54
2023/11/17 08:08:01;;;;;;;74.10;26.53;;;6.80;99.90;;;;;;5027161;28;20244;-54
2023/11/17 08:10:30;;;;;;;72.87;24.60;;;6.80;99.90;;;;;;5018655;28;20210;-51
2023/11/17 08:12:58;;;;;;;78.53;26.50;;;6.80;99.90;;;;;;5025888;28;20706;-52
2023/11/17 08:15:28;;;;;;;72.60;25.37;;;6.80;99.90;;;;;;5031322;28;20635;-50
2023/11/17 08:17:57;;;;;;;70.90;25.67;;;6.80;99.90;;;;;;5030154;28;20213;-52
2023/11/17 08:20:31;;;;;;;73.27;26.40;;;6.80;99.90;;;;;;5021672;28;20553;-50
2023/11/17 08:22:59;;;;;;;74.80;23.77;;;6.80;99.90;;;;;;5018118;28;20225;-54
2023/11/17 08:25:29;;;;;;;81.33;28.20;;;6.90;99.90;;;;;;5029987;28;20536;-52
2023/11/17 08:27:58;;;;;;;83.50;27.67;;;6.90;99.90;;;;;;5022520;28;20217;-52
2023/11/17 08:30:26;;;;;;;80.13;26.57;;;6.90;99.90;;;;;;5025499;28;20235;-53
2023/11/17 08:33:07;;;;;;;80.87;27.57;;;7.00;99.90;;;;;;5021852;28;20234;-52
2023/11/17 08:35:38;;;;;;;88.93;28.27;;;7.10;99.90;;;;;;5020728;28;20229;-54
2023/11/17 08:38:07;;;;;;;85.83;26.30;;;7.10;99.90;;;;;;5024754;28;20232;-49
2023/11/17 08:40:35;;;;;;;79.93;26.73;;;7.20;99.90;;;;;;5024855;28;20186;-53
2023/11/17 08:43:03;;;;;;;76.87;25.70;;;7.30;99.90;;;;;;5026746;28;20296;-54
2023/11/17 08:45:32;;;;;;;80.17;26.30;;;7.40;99.90;;;;;;5027837;28;20263;-53
2023/11/17 08:48:02;;;;;;;95.43;31.47;;;7.50;99.90;;;;;;5020397;28;20267;-50
2023/11/17 08:50:32;;;;;;;77.20;28.87;;;7.60;99.90;;;;;;5020506;28;20229;-50
2023/11/17 08:53:01;;;;;;;86.63;29.70;;;7.70;99.90;;;;;;5024281;28;20190;-51
2023/11/17 08:55:29;;;;;;;79.17;27.90;;;7.70;99.90;;;;;;5026553;28;20197;-54
2023/11/17 08:57:58;;;;;;;84.13;29.03;;;7.80;99.90;;;;;;5029507;28;20213;-53
2023/11/17 09:00:26;;;;;;;85.87;29.90;;;7.80;99.90;;;;;;5029422;28;20229;-53
2023/11/17 09:02:55;;;;;;;74.53;29.20;;;7.80;99.90;;;;;;5023346;28;20213;-53
2023/11/17 09:05:24;;;;;;;81.87;28.87;;;7.80;99.90;;;;;;5026649;28;20850;-51
2023/11/17 09:07:52;;;;;;;74.60;29.23;;;7.80;99.90;;;;;;5031864;28;20196;-52
2023/11/17 09:10:26;;;;;;;74.37;27.13;;;7.80;99.90;;;;;;5031764;28;20201;-52
2023/11/17 09:12:54;;;;;;;76.67;28.03;;;7.80;99.90;;;;;;5028345;28;20217;-53
2023/11/17 09:15:28;;;;;;;77.20;27.77;;;7.80;99.90;;;;;;5026768;28;20221;-53
2023/11/17 09:17:57;;;;;;;63.63;24.93;;;7.90;99.90;;;;;;5027323;28;20288;-58
2023/11/17 09:20:27;;;;;;;65.40;25.40;;;7.90;99.90;;;;;;5018847;28;20218;-53
2023/11/17 09:22:56;;;;;;;75.93;25.27;;;7.90;99.90;;;;;;5027153;28;20229;-52
2023/11/17 09:25:26;;;;;;;61.13;23.73;;;7.90;99.90;;;;;;5033344;28;20603;-53
2023/11/17 09:27:56;;;;;;;62.67;23.70;;;8.00;99.90;;;;;;5029406;28;20217;-51
2023/11/17 09:30:28;;;;;;;56.33;23.60;;;8.00;99.90;;;;;;5031439;28;20228;-53
2023/11/17 09:32:59;;;;;;;56.67;22.20;;;8.10;99.90;;;;;;5029555;28;20259;-52
2023/11/17 09:35:28;;;;;;;54.73;21.33;;;8.20;99.90;;;;;;5030120;28;20263;-51
2023/11/17 09:37:59;;;;;;;52.40;21.40;;;8.20;99.90;;;;;;5032315;28;20186;-53
2023/11/17 09:40:33;;;;;;;47.23;20.23;;;8.20;99.90;;;;;;5029906;28;20248;-53
2023/11/17 09:43:11;;;;;;;50.27;18.73;;;8.10;99.90;;;;;;5023917;28;20226;-54
2023/11/17 09:45:40;;;;;;;36.70;16.87;;;8.10;99.90;;;;;;5028555;28;20267;-54
2023/11/17 09:48:09;;;;;;;38.30;17.03;;;8.10;99.90;;;;;;5024773;28;20305;-52
2023/11/17 09:50:41;;;;;;;36.67;16.33;;;8.10;99.90;;;;;;5024237;28;20291;-52
2023/11/17 09:53:12;;;;;;;37.63;17.27;;;8.20;99.90;;;;;;5025218;28;20225;-53
2023/11/17 09:55:44;;;;;;;38.63;16.77;;;8.20;99.90;;;;;;5026484;28;20193;-55
2023/11/17 09:58:13;;;;;;;35.80;16.43;;;8.20;99.90;;;;;;5045519;28;20203;-51
2023/11/17 10:00:45;;;;;;;36.90;15.83;;;8.30;99.90;;;;;;5047927;28;20220;-50
2023/11/17 10:03:17;;;;;;;34.93;15.20;;;8.40;99.90;;;;;;5054182;28;20236;-54
2023/11/17 10:05:47;;;;;;;33.73;15.90;;;8.40;99.90;;;;;;5052448;28;20224;-50
2023/11/17 10:08:17;;;;;;;27.50;13.73;;;8.60;99.90;;;;;;5051349;28;20232;-54
2023/11/17 10:10:48;;;;;;;30.37;13.97;;;8.70;99.90;;;;;;5035883;28;20220;-51
2023/11/17 10:13:20;;;;;;;27.73;14.23;;;8.80;99.90;;;;;;5046362;28;20692;-53
2023/11/17 10:15:50;;;;;;;24.30;13.47;;;8.80;99.90;;;;;;5043545;28;20220;-51
2023/11/17 10:18:25;;;;;;;29.83;13.37;;;8.90;99.90;;;;;;5039476;28;20220;-53
2023/11/17 10:20:57;;;;;;;29.30;13.77;;;8.90;99.90;;;;;;5037412;28;20228;-54
2023/11/17 10:23:26;;;;;;;27.30;14.20;;;8.90;99.90;;;;;;5044344;28;20299;-54
2023/11/17 10:25:56;;;;;;;26.27;13.60;;;8.90;99.90;;;;;;5052920;28;20193;-54
2023/11/17 10:28:27;;;;;;;34.60;13.83;;;8.90;99.90;;;;;;5050307;28;20203;-55
2023/11/17 10:31:00;;;;;;;27.07;13.60;;;9.00;99.90;;;;;;5054659;28;20707;-53
2023/11/17 10:33:30;;;;;;;24.00;13.57;;;9.10;99.90;;;;;;5047532;28;20232;-55
2023/11/17 10:36:04;;;;;;;25.33;13.73;;;9.20;99.90;;;;;;5050159;28;20580;-53
2023/11/17 10:38:35;;;;;;;29.60;14.00;;;9.50;99.90;;;;;;5041751;28;20871;-54
2023/11/17 10:41:19;;;;;;;28.33;13.53;;;9.80;99.90;;;;;;5047239;28;20809;-54
2023/11/17 10:43:49;;;;;;;24.50;12.90;;;10.00;99.90;;;;;;5042695;28;20588;-54
2023/11/17 10:46:21;;;;;;;22.00;10.40;;;10.20;99.90;;;;;;5041093;28;20552;-53
2023/11/17 10:48:51;;;;;;;17.83;10.17;;;10.10;99.90;;;;;;5047667;28;20242;-52
2023/11/17 10:51:21;;;;;;;17.27;9.13;;;10.20;99.90;;;;;;5051549;28;20578;-54
2023/11/17 10:54:03;;;;;;;17.83;10.47;;;10.20;99.90;;;;;;5044745;28;20224;-54
2023/11/17 10:56:34;;;;;;;12.87;8.53;;;10.30;99.90;;;;;;5051666;28;20247;-53
2023/11/17 10:59:04;;;;;;;15.13;8.63;;;10.30;99.90;;;;;;5051322;28;20221;-53
2023/11/17 11:01:35;;;;;;;15.07;8.00;;;10.10;99.90;;;;;;5038239;28;20201;-51
2023/11/17 11:04:09;;;;;;;12.30;8.10;;;10.00;99.90;;;;;;5050872;28;20232;-54
2023/11/17 11:06:38;;;;;;;9.30;7.27;;;10.00;99.90;;;;;;5049662;28;20312;-53
2023/11/17 11:09:07;;;;;;;10.50;7.80;;;9.90;99.90;;;;;;5051325;28;20225;-53
2023/11/17 11:11:37;;;;;;;13.13;7.23;;;9.90;99.90;;;;;;5050097;28;20581;-52
2023/11/17 11:14:05;;;;;;;17.07;7.33;;;9.90;99.90;;;;;;5049347;28;20236;-56
2023/11/17 11:16:34;;;;;;;11.13;7.10;;;9.90;99.90;;;;;;5048556;28;20197;-55
2023/11/17 11:19:03;;;;;;;13.73;7.40;;;9.80;99.90;;;;;;5042191;28;20273;-54
2023/11/17 11:21:33;;;;;;;13.87;7.90;;;9.80;99.90;;;;;;5043083;28;20240;-55
2023/11/17 11:24:04;;;;;;;17.50;8.40;;;9.80;99.90;;;;;;5050982;28;20228;-51
2023/11/17 11:26:35;;;;;;;11.63;7.33;;;9.80;99.90;;;;;;5043775;28;20620;-51
2023/11/17 11:29:05;;;;;;;15.20;7.83;;;9.80;99.90;;;;;;5050925;28;20576;-54
2023/11/17 11:31:37;;;;;;;11.50;7.50;;;9.80;99.90;;;;;;5041895;28;20612;-54
2023/11/17 11:34:06;;;;;;;14.83;7.77;;;9.80;99.90;;;;;;5042311;28;20219;-52
2023/11/17 11:36:34;;;;;;;14.53;7.80;;;9.80;99.90;;;;;;5049152;28;20323;-53
2023/11/17 11:39:03;;;;;;;11.33;6.30;;;9.90;99.90;;;;;;5049401;28;20675;-54
2023/11/17 11:41:34;;;;;;;11.63;6.70;;;10.00;99.90;;;;;;5036797;28;20239;-54
2023/11/17 11:44:03;;;;;;;14.37;7.47;;;10.00;99.90;;;;;;5044613;28;20335;-54
2023/11/17 11:46:32;;;;;;;12.23;6.77;;;10.00;99.90;;;;;;5046795;28;20243;-52
2023/11/17 11:49:04;;;;;;;13.63;6.43;;;10.10;99.90;;;;;;5046463;28;20224;-54
2023/11/17 11:51:42;;;;;;;10.40;5.93;;;10.20;99.90;;;;;;5050930;28;20304;-51
2023/11/17 11:54:11;;;;;;;7.37;6.03;;;10.20;99.90;;;;;;5048870;28;20232;-53
2023/11/17 11:56:43;;;;;;;7.07;5.43;;;10.20;99.90;;;;;;5048651;28;20221;-52
2023/11/17 11:59:13;;;;;;;9.33;5.67;;;10.20;99.90;;;;;;5048409;28;20311;-53
2023/11/17 12:01:43;;;;;;;9.90;5.57;;;10.20;99.90;;;;;;5049850;28;20211;-54
2023/11/17 12:04:12;;;;;;;9.73;5.80;;;10.20;99.90;;;;;;5039140;28;20213;-51
2023/11/17 12:06:44;;;;;;;7.50;5.67;;;10.30;99.90;;;;;;5046729;28;20223;-53
2023/11/17 12:09:20;;;;;;;10.00;6.00;;;10.40;99.90;;;;;;5044894;28;20307;-53
2023/11/17 12:11:50;;;;;;;13.93;6.03;;;10.50;99.90;;;;;;5038680;28;20587;-53
2023/11/17 12:14:29;;;;;;;7.97;5.67;;;10.50;99.90;;;;;;5045883;28;20595;-53
2023/11/17 12:16:58;;;;;;;6.33;5.33;;;10.60;99.90;;;;;;5044289;28;20555;-55
2023/11/17 12:19:29;;;;;;;7.37;5.13;;;10.60;99.90;;;;;;5050530;28;20521;-54
2023/11/17 12:22:00;;;;;;;8.37;5.37;;;10.60;99.90;;;;;;5049081;28;20307;-55
2023/11/17 12:24:48;;;;;;;8.30;5.43;;;10.60;99.90;;;;;;5053256;28;20219;-52
2023/11/17 12:27:17;;;;;;;9.57;5.80;;;10.50;99.90;;;;;;5041653;28;20299;-52
2023/11/17 12:29:47;;;;;;;6.83;4.97;;;10.40;99.90;;;;;;5043245;28;20233;-53
2023/11/17 12:32:19;;;;;;;7.13;5.80;;;10.40;99.90;;;;;;5043963;28;20290;-50
2023/11/17 12:34:49;;;;;;;11.47;5.60;;;10.30;99.90;;;;;;5046621;28;20193;-55
2023/11/17 12:37:20;;;;;;;7.77;5.40;;;10.40;99.90;;;;;;5047725;28;20197;-49
2023/11/17 12:39:49;;;;;;;7.13;5.50;;;10.50;99.90;;;;;;5038339;28;20247;-51
2023/11/17 12:42:21;;;;;;;8.53;5.50;;;10.50;99.90;;;;;;5038926;28;20248;-54
2023/11/17 12:44:51;;;;;;;8.80;5.43;;;10.30;99.90;;;;;;5045517;28;20231;-52
2023/11/17 12:47:38;;;;;;;6.77;5.30;;;10.30;99.90;;;;;;5042082;28;20220;-52
2023/11/17 12:53:41;;;;;;;13.33;6.10;;;10.20;99.90;;;;;;5042009;28;20225;-51
2023/11/17 12:56:21;;;;;;;5.97;5.23;;;10.00;99.90;;;;;;5045065;28;20235;-51
2023/11/17 12:58:49;;;;;;;6.87;5.20;;;10.00;99.90;;;;;;5045850;28;20191;-54